sensor_id;sensor_type;location;lat;lon;timestamp;temperature;humidity
77985;DHT22;67177;47.240;-1.546;2023-11-18T00:00:17;12.40;79.90
77985;DHT22;67177;47.240;-1.546;2023-11-18T00:02:43;12.40;80.00
77985;DHT22;67177;47.240;-1.546;2023-11-18T00:05:10;12.40;80.00
77985;DHT22;67177;47.240;-1.546;2023-11-18T00:07:36;12.40;80.00
77985;DHT22;67177;47.240;-1.546;2023-11-18T00:10:02;12.40;80.00
77985;DHT22;67177;47.240;-1.546;2023-11-18T00:12:28;12.40;80.00
77985;DHT22;67177;47.240;-1.546;2023-11-18T00:14:54;12.40;80.00
77985;DHT22;67177;47.240;-1.546;2023-11-18T00:17:20;12.40;80.00
77985;DHT22;67177;47.240;-1.546;2023-11-18T00:19:46;12.40;80.00
77985;DHT22;67177;47.240;-1.546;2023-11-18T00:22:12;12.40;80.00
77985;DHT22;67177;47.240;-1.546;2023-11-18T00:24:38;12.50;80.10
77985;DHT22;67177;47.240;-1.546;2023-11-18T00:27:04;12.40;80.10
77985;DHT22;67177;47.240;-1.546;2023-11-18T00:29:33;12.50;80.20
77985;DHT22;67177;47.240;-1.546;2023-11-18T00:31:59;12.40;80.20
77985;DHT22;67177;47.240;-1.546;2023-11-18T00:34:25;12.50;80.20
77985;DHT22;67177;47.240;-1.546;2023-11-18T00:36:51;12.50;80.30
77985;DHT22;67177;47.240;-1.546;2023-11-18T00:39:17;12.50;80.40
77985;DHT22;67177;47.240;-1.546;2023-11-18T00:41:43;12.50;80.30
77985;DHT22;67177;47.240;-1.546;2023-11-18T00:44:09;12.50;80.50
77985;DHT22;67177;47.240;-1.546;2023-11-18T00:46:35;12.50;80.40
77985;DHT22;67177;47.240;-1.546;2023-11-18T00:49:02;12.50;80.50
77985;DHT22;67177;47.240;-1.546;2023-11-18T00:51:28;12.50;80.60
77985;DHT22;67177;47.240;-1.546;2023-11-18T00:53:54;12.50;80.70
77985;DHT22;67177;47.240;-1.546;2023-11-18T00:56:20;12.50;80.70
77985;DHT22;67177;47.240;-1.546;2023-11-18T00:58:47;12.50;80.80
77985;DHT22;67177;47.240;-1.546;2023-11-18T01:01:13;12.50;80.90
77985;DHT22;67177;47.240;-1.546;2023-11-18T01:03:40;12.50;80.90
77985;DHT22;67177;47.240;-1.546;2023-11-18T01:06:05;12.50;81.00
77985;DHT22;67177;47.240;-1.546;2023-11-18T01:08:32;12.60;81.20
77985;DHT22;67177;47.240;-1.546;2023-11-18T01:10:57;12.50;81.20
77985;DHT22;67177;47.240;-1.546;2023-11-18T01:13:23;12.60;81.40
77985;DHT22;67177;47.240;-1.546;2023-11-18T01:15:49;12.60;81.40
77985;DHT22;67177;47.240;-1.546;2023-11-18T01:18:15;12.60;81.50
77985;DHT22;67177;47.240;-1.546;2023-11-18T01:20:40;12.60;81.50
77985;DHT22;67177;47.240;-1.546;2023-11-18T01:23:06;12.60;81.60
77985;DHT22;67177;47.240;-1.546;2023-11-18T01:25:31;12.60;81.60
77985;DHT22;67177;47.240;-1.546;2023-11-18T01:27:57;12.60;81.80
77985;DHT22;67177;47.240;-1.546;2023-11-18T01:30:23;12.60;81.70
77985;DHT22;67177;47.240;-1.546;2023-11-18T01:32:49;12.60;81.90
77985;DHT22;67177;47.240;-1.546;2023-11-18T01:35:15;12.60;82.00
77985;DHT22;67177;47.240;-1.546;2023-11-18T01:37:41;12.60;82.10
77985;DHT22;67177;47.240;-1.546;2023-11-18T01:40:07;12.60;82.10
77985;DHT22;67177;47.240;-1.546;2023-11-18T01:42:33;12.60;82.20
77985;DHT22;67177;47.240;-1.546;2023-11-18T01:44:59;12.60;82.30
77985;DHT22;67177;47.240;-1.546;2023-11-18T01:47:29;12.60;82.40
77985;DHT22;67177;47.240;-1.546;2023-11-18T01:49:59;12.60;82.40
77985;DHT22;67177;47.240;-1.546;2023-11-18T01:52:27;12.60;82.40
77985;DHT22;67177;47.240;-1.546;2023-11-18T01:54:56;12.70;82.60
77985;DHT22;67177;47.240;-1.546;2023-11-18T01:57:21;12.70;82.60
77985;DHT22;67177;47.240;-1.546;2023-11-18T01:59:48;12.70;82.70
77985;DHT22;67177;47.240;-1.546;2023-11-18T02:02:13;12.70;82.70
77985;DHT22;67177;47.240;-1.546;2023-11-18T02:04:39;12.70;82.80
77985;DHT22;67177;47.240;-1.546;2023-11-18T02:07:05;12.70;82.80
77985;DHT22;67177;47.240;-1.546;2023-11-18T02:09:35;12.70;82.90
77985;DHT22;67177;47.240;-1.546;2023-11-18T02:12:27;12.80;83.00
77985;DHT22;67177;47.240;-1.546;2023-11-18T02:14:55;12.70;83.10
77985;DHT22;67177;47.240;-1.546;2023-11-18T02:17:23;12.70;83.00
77985;DHT22;67177;47.240;-1.546;2023-11-18T02:19:53;12.70;83.10
77985;DHT22;67177;47.240;-1.546;2023-11-18T02:22:21;12.80;83.20
77985;DHT22;67177;47.240;-1.546;2023-11-18T02:24:47;12.80;83.20
77985;DHT22;67177;47.240;-1.546;2023-11-18T02:27:13;12.80;83.30
77985;DHT22;67177;47.240;-1.546;2023-11-18T02:29:44;12.80;83.40
77985;DHT22;67177;47.240;-1.546;2023-11-18T02:32:15;12.80;83.40
77985;DHT22;67177;47.240;-1.546;2023-11-18T02:34:45;12.80;83.60
77985;DHT22;67177;47.240;-1.546;2023-11-18T02:37:13;12.80;83.60
77985;DHT22;67177;47.240;-1.546;2023-11-18T02:39:43;12.80;83.60
77985;DHT22;67177;47.240;-1.546;2023-11-18T02:42:09;12.80;83.60
77985;DHT22;67177;47.240;-1.546;2023-11-18T02:44:38;12.80;83.70
77985;DHT22;67177;47.240;-1.546;2023-11-18T02:47:04;12.80;83.80
77985;DHT22;67177;47.240;-1.546;2023-11-18T02:49:31;12.80;83.80
77985;DHT22;67177;47.240;-1.546;2023-11-18T02:51:56;12.80;83.90
77985;DHT22;67177;47.240;-1.546;2023-11-18T02:54:22;12.80;83.80
77985;DHT22;67177;47.240;-1.546;2023-11-18T02:56:48;12.80;83.80
77985;DHT22;67177;47.240;-1.546;2023-11-18T02:59:15;12.90;83.90
77985;DHT22;67177;47.240;-1.546;2023-11-18T03:01:41;12.90;84.00
77985;DHT22;67177;47.240;-1.546;2023-11-18T03:04:07;12.90;83.90
77985;DHT22;67177;47.240;-1.546;2023-11-18T03:06:33;12.90;84.00
77985;DHT22;67177;47.240;-1.546;2023-11-18T03:09:01;12.90;84.00
77985;DHT22;67177;47.240;-1.546;2023-11-18T03:11:26;12.90;84.00
77985;DHT22;67177;47.240;-1.546;2023-11-18T03:13:55;12.90;84.10
77985;DHT22;67177;47.240;-1.546;2023-11-18T03:16:22;12.90;84.20
77985;DHT22;67177;47.240;-1.546;2023-11-18T03:18:50;13.00;84.10
77985;DHT22;67177;47.240;-1.546;2023-11-18T03:21:16;13.00;84.20
77985;DHT22;67177;47.240;-1.546;2023-11-18T03:23:42;13.00;84.20
77985;DHT22;67177;47.240;-1.546;2023-11-18T03:26:08;13.00;84.30
77985;DHT22;67177;47.240;-1.546;2023-11-18T03:28:35;13.00;84.20
77985;DHT22;67177;47.240;-1.546;2023-11-18T03:31:03;13.00;84.30
77985;DHT22;67177;47.240;-1.546;2023-11-18T03:33:29;13.00;84.30
77985;DHT22;67177;47.240;-1.546;2023-11-18T03:35:55;13.00;84.30
77985;DHT22;67177;47.240;-1.546;2023-11-18T03:38:21;13.00;84.30
77985;DHT22;67177;47.240;-1.546;2023-11-18T03:40:47;13.00;84.50
77985;DHT22;67177;47.240;-1.546;2023-11-18T03:43:13;13.00;84.50
77985;DHT22;67177;47.240;-1.546;2023-11-18T03:45:40;13.00;84.50
77985;DHT22;67177;47.240;-1.546;2023-11-18T03:48:07;13.00;84.50
77985;DHT22;67177;47.240;-1.546;2023-11-18T03:50:36;13.00;84.60
77985;DHT22;67177;47.240;-1.546;2023-11-18T03:53:01;13.00;84.50
77985;DHT22;67177;47.240;-1.546;2023-11-18T03:55:29;13.00;84.60
77985;DHT22;67177;47.240;-1.546;2023-11-18T03:57:55;13.00;84.60
77985;DHT22;67177;47.240;-1.546;2023-11-18T04:00:22;13.00;84.60
77985;DHT22;67177;47.240;-1.546;2023-11-18T04:02:57;13.00;84.60
77985;DHT22;67177;47.240;-1.546;2023-11-18T04:05:23;13.00;84.60
77985;DHT22;67177;47.240;-1.546;2023-11-18T04:07:49;13.00;84.60
77985;DHT22;67177;47.240;-1.546;2023-11-18T04:10:15;13.00;84.60
77985;DHT22;67177;47.240;-1.546;2023-11-18T04:12:40;13.00;84.60
77985;DHT22;67177;47.240;-1.546;2023-11-18T04:15:07;13.00;84.60
77985;DHT22;67177;47.240;-1.546;2023-11-18T04:17:33;13.00;84.70
77985;DHT22;67177;47.240;-1.546;2023-11-18T04:19:59;13.00;84.80
77985;DHT22;67177;47.240;-1.546;2023-11-18T04:22:24;13.00;84.80
77985;DHT22;67177;47.240;-1.546;2023-11-18T04:24:50;13.00;84.80
77985;DHT22;67177;47.240;-1.546;2023-11-18T04:27:16;13.00;84.80
77985;DHT22;67177;47.240;-1.546;2023-11-18T04:29:42;13.10;84.80
77985;DHT22;67177;47.240;-1.546;2023-11-18T04:32:08;13.00;84.80
77985;DHT22;67177;47.240;-1.546;2023-11-18T04:34:39;13.00;84.80
77985;DHT22;67177;47.240;-1.546;2023-11-18T04:37:04;13.10;84.80
77985;DHT22;67177;47.240;-1.546;2023-11-18T04:39:34;13.10;84.80
77985;DHT22;67177;47.240;-1.546;2023-11-18T04:41:59;13.10;84.80
77985;DHT22;67177;47.240;-1.546;2023-11-18T04:44:26;13.10;84.90
77985;DHT22;67177;47.240;-1.546;2023-11-18T04:46:52;13.10;84.80
77985;DHT22;67177;47.240;-1.546;2023-11-18T04:49:18;13.10;84.90
77985;DHT22;67177;47.240;-1.546;2023-11-18T04:51:44;13.10;84.80
77985;DHT22;67177;47.240;-1.546;2023-11-18T04:54:10;13.10;84.90
77985;DHT22;67177;47.240;-1.546;2023-11-18T04:56:36;13.10;84.80
77985;DHT22;67177;47.240;-1.546;2023-11-18T04:59:03;13.10;84.80
77985;DHT22;67177;47.240;-1.546;2023-11-18T05:01:31;13.10;84.80
77985;DHT22;67177;47.240;-1.546;2023-11-18T05:03:57;13.10;84.80
77985;DHT22;67177;47.240;-1.546;2023-11-18T05:06:23;13.10;84.90
77985;DHT22;67177;47.240;-1.546;2023-11-18T05:08:48;13.10;84.80
77985;DHT22;67177;47.240;-1.546;2023-11-18T05:11:15;13.10;84.80
77985;DHT22;67177;47.240;-1.546;2023-11-18T05:13:41;13.10;84.80
77985;DHT22;67177;47.240;-1.546;2023-11-18T05:16:07;13.10;84.80
77985;DHT22;67177;47.240;-1.546;2023-11-18T05:18:33;13.10;84.80
77985;DHT22;67177;47.240;-1.546;2023-11-18T05:21:02;13.10;84.80
77985;DHT22;67177;47.240;-1.546;2023-11-18T05:23:30;13.10;84.80
77985;DHT22;67177;47.240;-1.546;2023-11-18T05:25:55;13.10;84.80
77985;DHT22;67177;47.240;-1.546;2023-11-18T05:28:22;13.10;84.80
77985;DHT22;67177;47.240;-1.546;2023-11-18T05:30:47;13.10;84.90
77985;DHT22;67177;47.240;-1.546;2023-11-18T05:33:13;13.10;84.80
77985;DHT22;67177;47.240;-1.546;2023-11-18T05:35:42;13.10;84.80
77985;DHT22;67177;47.240;-1.546;2023-11-18T05:38:17;13.10;84.60
77985;DHT22;67177;47.240;-1.546;2023-11-18T05:40:47;13.10;84.60
77985;DHT22;67177;47.240;-1.546;2023-11-18T05:43:27;13.10;84.70
77985;DHT22;67177;47.240;-1.546;2023-11-18T05:46:02;13.10;84.60
77985;DHT22;67177;47.240;-1.546;2023-11-18T05:48:43;13.10;84.70
77985;DHT22;67177;47.240;-1.546;2023-11-18T05:51:09;13.10;84.60
77985;DHT22;67177;47.240;-1.546;2023-11-18T05:53:39;13.10;84.70
77985;DHT22;67177;47.240;-1.546;2023-11-18T05:56:06;13.10;84.80
77985;DHT22;67177;47.240;-1.546;2023-11-18T05:58:32;13.20;84.80
77985;DHT22;67177;47.240;-1.546;2023-11-18T06:00:58;13.20;84.80
77985;DHT22;67177;47.240;-1.546;2023-11-18T06:03:24;13.20;84.80
77985;DHT22;67177;47.240;-1.546;2023-11-18T06:05:50;13.20;84.80
77985;DHT22;67177;47.240;-1.546;2023-11-18T06:08:16;13.20;84.70
77985;DHT22;67177;47.240;-1.546;2023-11-18T06:10:42;13.20;84.60
77985;DHT22;67177;47.240;-1.546;2023-11-18T06:13:10;13.30;84.60
77985;DHT22;67177;47.240;-1.546;2023-11-18T06:15:38;13.30;84.60
77985;DHT22;67177;47.240;-1.546;2023-11-18T06:18:04;13.30;84.60
77985;DHT22;67177;47.240;-1.546;2023-11-18T06:20:30;13.30;84.60
77985;DHT22;67177;47.240;-1.546;2023-11-18T06:22:58;13.30;84.60
77985;DHT22;67177;47.240;-1.546;2023-11-18T06:25:24;13.30;84.60
77985;DHT22;67177;47.240;-1.546;2023-11-18T06:27:51;13.30;84.60
77985;DHT22;67177;47.240;-1.546;2023-11-18T06:30:18;13.40;84.50
77985;DHT22;67177;47.240;-1.546;2023-11-18T06:32:45;13.40;84.50
77985;DHT22;67177;47.240;-1.546;2023-11-18T06:35:12;13.40;84.60
77985;DHT22;67177;47.240;-1.546;2023-11-18T06:37:40;13.40;84.50
77985;DHT22;67177;47.240;-1.546;2023-11-18T06:40:06;13.40;84.60
77985;DHT22;67177;47.240;-1.546;2023-11-18T06:42:42;13.40;84.60
77985;DHT22;67177;47.240;-1.546;2023-11-18T06:45:08;13.40;84.60
77985;DHT22;67177;47.240;-1.546;2023-11-18T06:47:35;13.40;84.60
77985;DHT22;67177;47.240;-1.546;2023-11-18T06:50:02;13.50;84.60
77985;DHT22;67177;47.240;-1.546;2023-11-18T06:52:27;13.50;84.60
77985;DHT22;67177;47.240;-1.546;2023-11-18T06:54:54;13.50;84.80
77985;DHT22;67177;47.240;-1.546;2023-11-18T06:57:20;13.40;84.80
77985;DHT22;67177;47.240;-1.546;2023-11-18T06:59:47;13.50;84.80
77985;DHT22;67177;47.240;-1.546;2023-11-18T07:02:14;13.50;84.80
77985;DHT22;67177;47.240;-1.546;2023-11-18T07:04:40;13.50;84.90
77985;DHT22;67177;47.240;-1.546;2023-11-18T07:07:06;13.50;84.80
77985;DHT22;67177;47.240;-1.546;2023-11-18T07:09:34;13.50;84.90
77985;DHT22;67177;47.240;-1.546;2023-11-18T07:12:02;13.60;84.80
77985;DHT22;67177;47.240;-1.546;2023-11-18T07:14:29;13.50;84.80
77985;DHT22;67177;47.240;-1.546;2023-11-18T07:16:55;13.50;84.80
77985;DHT22;67177;47.240;-1.546;2023-11-18T07:19:20;13.60;84.90
77985;DHT22;67177;47.240;-1.546;2023-11-18T07:21:50;13.50;85.10
77985;DHT22;67177;47.240;-1.546;2023-11-18T07:24:15;13.50;85.00
77985;DHT22;67177;47.240;-1.546;2023-11-18T07:26:42;13.50;85.10
77985;DHT22;67177;47.240;-1.546;2023-11-18T07:29:09;13.60;85.20
77985;DHT22;67177;47.240;-1.546;2023-11-18T07:31:35;13.60;85.40
77985;DHT22;67177;47.240;-1.546;2023-11-18T07:34:05;13.60;85.40
77985;DHT22;67177;47.240;-1.546;2023-11-18T07:36:31;13.60;85.40
77985;DHT22;67177;47.240;-1.546;2023-11-18T07:38:58;13.60;85.50
77985;DHT22;67177;47.240;-1.546;2023-11-18T07:41:27;13.60;85.60
77985;DHT22;67177;47.240;-1.546;2023-11-18T07:43:55;13.70;85.70
77985;DHT22;67177;47.240;-1.546;2023-11-18T07:46:24;13.70;85.70
77985;DHT22;67177;47.240;-1.546;2023-11-18T07:48:51;13.70;85.80
77985;DHT22;67177;47.240;-1.546;2023-11-18T07:51:21;13.70;85.90
77985;DHT22;67177;47.240;-1.546;2023-11-18T07:53:48;13.70;86.00
77985;DHT22;67177;47.240;-1.546;2023-11-18T07:56:14;13.70;86.10
77985;DHT22;67177;47.240;-1.546;2023-11-18T07:58:42;13.70;86.10
77985;DHT22;67177;47.240;-1.546;2023-11-18T08:01:11;13.80;86.20
77985;DHT22;67177;47.240;-1.546;2023-11-18T08:03:37;13.80;86.20
77985;DHT22;67177;47.240;-1.546;2023-11-18T08:06:04;13.80;86.30
77985;DHT22;67177;47.240;-1.546;2023-11-18T08:08:32;13.80;86.30
77985;DHT22;67177;47.240;-1.546;2023-11-18T08:10:58;13.90;86.40
77985;DHT22;67177;47.240;-1.546;2023-11-18T08:13:25;13.90;86.40
77985;DHT22;67177;47.240;-1.546;2023-11-18T08:15:51;13.90;86.40
77985;DHT22;67177;47.240;-1.546;2023-11-18T08:18:17;13.90;86.40
77985;DHT22;67177;47.240;-1.546;2023-11-18T08:20:44;13.90;86.50
77985;DHT22;67177;47.240;-1.546;2023-11-18T08:23:10;14.00;86.60
77985;DHT22;67177;47.240;-1.546;2023-11-18T08:25:36;14.00;86.60
77985;DHT22;67177;47.240;-1.546;2023-11-18T08:28:02;14.00;86.70
77985;DHT22;67177;47.240;-1.546;2023-11-18T08:30:29;14.00;86.60
77985;DHT22;67177;47.240;-1.546;2023-11-18T08:32:55;14.00;86.70
77985;DHT22;67177;47.240;-1.546;2023-11-18T08:35:20;14.10;86.70
77985;DHT22;67177;47.240;-1.546;2023-11-18T08:37:47;14.10;86.70
77985;DHT22;67177;47.240;-1.546;2023-11-18T08:40:13;14.10;86.60
77985;DHT22;67177;47.240;-1.546;2023-11-18T08:42:43;14.20;86.70
77985;DHT22;67177;47.240;-1.546;2023-11-18T08:45:14;14.20;86.80
77985;DHT22;67177;47.240;-1.546;2023-11-18T08:47:43;14.20;86.80
77985;DHT22;67177;47.240;-1.546;2023-11-18T08:50:09;14.20;86.80
77985;DHT22;67177;47.240;-1.546;2023-11-18T08:52:38;14.20;86.90
77985;DHT22;67177;47.240;-1.546;2023-11-18T08:55:11;14.20;86.70
77985;DHT22;67177;47.240;-1.546;2023-11-18T08:57:47;14.30;86.80
77985;DHT22;67177;47.240;-1.546;2023-11-18T09:00:30;14.30;86.70
77985;DHT22;67177;47.240;-1.546;2023-11-18T09:03:11;14.40;86.70
77985;DHT22;67177;47.240;-1.546;2023-11-18T09:05:46;14.40;86.60
77985;DHT22;67177;47.240;-1.546;2023-11-18T09:08:29;14.40;86.50
77985;DHT22;67177;47.240;-1.546;2023-11-18T09:10:58;14.50;86.50
77985;DHT22;67177;47.240;-1.546;2023-11-18T09:13:24;14.50;86.50
77985;DHT22;67177;47.240;-1.546;2023-11-18T09:15:55;14.50;86.70
77985;DHT22;67177;47.240;-1.546;2023-11-18T09:18:22;14.50;86.70
77985;DHT22;67177;47.240;-1.546;2023-11-18T09:20:47;14.50;86.60
77985;DHT22;67177;47.240;-1.546;2023-11-18T09:23:14;14.40;86.60
77985;DHT22;67177;47.240;-1.546;2023-11-18T09:25:42;14.40;86.60
77985;DHT22;67177;47.240;-1.546;2023-11-18T09:28:12;14.40;86.50
77985;DHT22;67177;47.240;-1.546;2023-11-18T09:30:39;14.50;86.40
77985;DHT22;67177;47.240;-1.546;2023-11-18T09:33:18;14.60;86.20
77985;DHT22;67177;47.240;-1.546;2023-11-18T09:35:53;14.60;85.90
77985;DHT22;67177;47.240;-1.546;2023-11-18T09:38:32;14.70;85.80
77985;DHT22;67177;47.240;-1.546;2023-11-18T09:40:59;14.80;85.40
77985;DHT22;67177;47.240;-1.546;2023-11-18T09:43:31;14.90;85.20
77985;DHT22;67177;47.240;-1.546;2023-11-18T09:46:04;15.00;85.10
77985;DHT22;67177;47.240;-1.546;2023-11-18T09:48:47;15.10;85.00
77985;DHT22;67177;47.240;-1.546;2023-11-18T09:51:22;15.20;84.60
77985;DHT22;67177;47.240;-1.546;2023-11-18T09:54:00;15.20;84.50
77985;DHT22;67177;47.240;-1.546;2023-11-18T09:56:30;15.30;84.30
77985;DHT22;67177;47.240;-1.546;2023-11-18T09:59:22;15.40;84.30
77985;DHT22;67177;47.240;-1.546;2023-11-18T10:01:56;15.50;83.90
77985;DHT22;67177;47.240;-1.546;2023-11-18T10:04:26;15.60;83.60
77985;DHT22;67177;47.240;-1.546;2023-11-18T10:06:53;15.60;83.70
77985;DHT22;67177;47.240;-1.546;2023-11-18T10:09:20;15.50;83.70
77985;DHT22;67177;47.240;-1.546;2023-11-18T10:11:54;15.50;83.60
77985;DHT22;67177;47.240;-1.546;2023-11-18T10:14:28;15.60;83.30
77985;DHT22;67177;47.240;-1.546;2023-11-18T10:16:55;15.60;83.20
77985;DHT22;67177;47.240;-1.546;2023-11-18T10:19:21;15.70;82.90
77985;DHT22;67177;47.240;-1.546;2023-11-18T10:21:47;15.70;83.00
77985;DHT22;67177;47.240;-1.546;2023-11-18T10:24:15;15.70;83.10
77985;DHT22;67177;47.240;-1.546;2023-11-18T10:26:54;15.60;83.20
77985;DHT22;67177;47.240;-1.546;2023-11-18T10:29:23;15.70;83.10
77985;DHT22;67177;47.240;-1.546;2023-11-18T10:31:50;15.70;83.20
77985;DHT22;67177;47.240;-1.546;2023-11-18T10:34:19;15.70;83.10
77985;DHT22;67177;47.240;-1.546;2023-11-18T10:36:59;15.70;83.10
77985;DHT22;67177;47.240;-1.546;2023-11-18T10:39:29;15.80;83.10
77985;DHT22;67177;47.240;-1.546;2023-11-18T10:41:59;15.80;83.10
77985;DHT22;67177;47.240;-1.546;2023-11-18T10:44:26;15.70;83.20
77985;DHT22;67177;47.240;-1.546;2023-11-18T10:46:55;15.60;83.30
77985;DHT22;67177;47.240;-1.546;2023-11-18T10:49:33;15.60;83.20
77985;DHT22;67177;47.240;-1.546;2023-11-18T10:52:02;15.60;83.30
77985;DHT22;67177;47.240;-1.546;2023-11-18T10:54:32;15.60;83.50
77985;DHT22;67177;47.240;-1.546;2023-11-18T10:57:01;15.60;83.60
77985;DHT22;67177;47.240;-1.546;2023-11-18T10:59:32;15.50;83.70
77985;DHT22;67177;47.240;-1.546;2023-11-18T11:01:58;15.50;83.70
77985;DHT22;67177;47.240;-1.546;2023-11-18T11:04:24;15.40;83.80
77985;DHT22;67177;47.240;-1.546;2023-11-18T11:06:50;15.40;83.90
77985;DHT22;67177;47.240;-1.546;2023-11-18T11:09:20;15.50;83.80
77985;DHT22;67177;47.240;-1.546;2023-11-18T11:11:54;15.50;83.80
77985;DHT22;67177;47.240;-1.546;2023-11-18T11:14:22;15.60;83.80
77985;DHT22;67177;47.240;-1.546;2023-11-18T11:17:03;15.70;83.80
77985;DHT22;67177;47.240;-1.546;2023-11-18T11:22:24;15.90;83.60
77985;DHT22;67177;47.240;-1.546;2023-11-18T11:25:14;16.00;83.50
77985;DHT22;67177;47.240;-1.546;2023-11-18T11:28:15;16.10;83.40
77985;DHT22;67177;47.240;-1.546;2023-11-18T11:33:49;16.10;83.10
77985;DHT22;67177;47.240;-1.546;2023-11-18T11:36:20;16.10;83.10
77985;DHT22;67177;47.240;-1.546;2023-11-18T11:38:52;16.10;83.10
77985;DHT22;67177;47.240;-1.546;2023-11-18T11:41:21;16.10;83.10
77985;DHT22;67177;47.240;-1.546;2023-11-18T11:43:52;16.10;83.30
77985;DHT22;67177;47.240;-1.546;2023-11-18T11:46:26;16.00;83.30
77985;DHT22;67177;47.240;-1.546;2023-11-18T11:49:01;15.90;83.40
77985;DHT22;67177;47.240;-1.546;2023-11-18T11:51:44;15.90;83.50
77985;DHT22;67177;47.240;-1.546;2023-11-18T11:54:20;15.90;83.50
77985;DHT22;67177;47.240;-1.546;2023-11-18T11:56:47;15.80;83.50
77985;DHT22;67177;47.240;-1.546;2023-11-18T12:02:16;15.80;83.50
77985;DHT22;67177;47.240;-1.546;2023-11-18T12:04:45;15.80;83.40
77985;DHT22;67177;47.240;-1.546;2023-11-18T12:07:11;15.80;83.60
77985;DHT22;67177;47.240;-1.546;2023-11-18T12:09:41;15.90;83.50
77985;DHT22;67177;47.240;-1.546;2023-11-18T12:12:20;15.90;83.50
77985;DHT22;67177;47.240;-1.546;2023-11-18T12:14:56;16.00;83.50
77985;DHT22;67177;47.240;-1.546;2023-11-18T12:17:23;16.00;83.40
77985;DHT22;67177;47.240;-1.546;2023-11-18T12:19:57;16.00;83.20
77985;DHT22;67177;47.240;-1.546;2023-11-18T12:23:04;16.10;83.10
77985;DHT22;67177;47.240;-1.546;2023-11-18T12:25:40;16.20;83.10
77985;DHT22;67177;47.240;-1.546;2023-11-18T12:28:16;16.30;82.80
77985;DHT22;67177;47.240;-1.546;2023-11-18T12:30:44;16.30;82.90
77985;DHT22;67177;47.240;-1.546;2023-11-18T12:33:18;16.40;82.60
77985;DHT22;67177;47.240;-1.546;2023-11-18T12:36:37;16.50;82.40
77985;DHT22;67177;47.240;-1.546;2023-11-18T12:41:42;16.50;82.10
77985;DHT22;67177;47.240;-1.546;2023-11-18T12:47:05;16.50;82.20
77985;DHT22;67177;47.240;-1.546;2023-11-18T12:49:41;16.50;82.20
77985;DHT22;67177;47.240;-1.546;2023-11-18T12:52:08;16.50;82.00
77985;DHT22;67177;47.240;-1.546;2023-11-18T12:54:35;16.50;82.00
77985;DHT22;67177;47.240;-1.546;2023-11-18T12:57:04;16.50;81.90
77985;DHT22;67177;47.240;-1.546;2023-11-18T12:59:36;16.50;82.10
77985;DHT22;67177;47.240;-1.546;2023-11-18T13:02:10;16.50;82.10
77985;DHT22;67177;47.240;-1.546;2023-11-18T13:04:43;16.60;82.10
77985;DHT22;67177;47.240;-1.546;2023-11-18T13:07:13;16.60;82.00
77985;DHT22;67177;47.240;-1.546;2023-11-18T13:09:40;16.60;82.10
77985;DHT22;67177;47.240;-1.546;2023-11-18T13:12:08;16.60;82.10
77985;DHT22;67177;47.240;-1.546;2023-11-18T13:14:34;16.60;82.00
77985;DHT22;67177;47.240;-1.546;2023-11-18T13:17:08;16.60;82.10
77985;DHT22;67177;47.240;-1.546;2023-11-18T13:19:34;16.60;82.10
77985;DHT22;67177;47.240;-1.546;2023-11-18T13:24:26;16.50;82.20
77985;DHT22;67177;47.240;-1.546;2023-11-18T13:26:56;16.50;82.10
77985;DHT22;67177;47.240;-1.546;2023-11-18T13:29:23;16.50;82.10
77985;DHT22;67177;47.240;-1.546;2023-11-18T13:31:50;16.50;82.20
77985;DHT22;67177;47.240;-1.546;2023-11-18T13:34:18;16.50;82.10
77985;DHT22;67177;47.240;-1.546;2023-11-18T13:36:43;16.60;82.20
77985;DHT22;67177;47.240;-1.546;2023-11-18T13:39:16;16.60;82.30
77985;DHT22;67177;47.240;-1.546;2023-11-18T13:41:42;16.60;82.10
77985;DHT22;67177;47.240;-1.546;2023-11-18T13:44:10;16.60;82.20
77985;DHT22;67177;47.240;-1.546;2023-11-18T13:46:44;16.50;82.20
77985;DHT22;67177;47.240;-1.546;2023-11-18T13:49:09;16.50;82.30
77985;DHT22;67177;47.240;-1.546;2023-11-18T13:51:35;16.50;82.30
77985;DHT22;67177;47.240;-1.546;2023-11-18T13:54:02;16.60;82.30
77985;DHT22;67177;47.240;-1.546;2023-11-18T13:56:28;16.70;82.20
77985;DHT22;67177;47.240;-1.546;2023-11-18T13:58:55;16.70;82.30
77985;DHT22;67177;47.240;-1.546;2023-11-18T14:01:21;16.80;82.30
77985;DHT22;67177;47.240;-1.546;2023-11-18T14:03:47;16.70;82.30
77985;DHT22;67177;47.240;-1.546;2023-11-18T14:06:13;16.70;82.50
77985;DHT22;67177;47.240;-1.546;2023-11-18T14:08:46;16.70;82.40
77985;DHT22;67177;47.240;-1.546;2023-11-18T14:11:11;16.60;82.50
77985;DHT22;67177;47.240;-1.546;2023-11-18T14:13:37;16.60;82.50
77985;DHT22;67177;47.240;-1.546;2023-11-18T14:16:03;16.50;82.70
77985;DHT22;67177;47.240;-1.546;2023-11-18T14:18:29;16.60;82.90
77985;DHT22;67177;47.240;-1.546;2023-11-18T14:20:56;16.50;82.90
77985;DHT22;67177;47.240;-1.546;2023-11-18T14:23:22;16.50;83.00
77985;DHT22;67177;47.240;-1.546;2023-11-18T14:25:49;16.50;83.20
77985;DHT22;67177;47.240;-1.546;2023-11-18T14:28:15;16.50;83.30
77985;DHT22;67177;47.240;-1.546;2023-11-18T14:30:40;16.50;83.30
77985;DHT22;67177;47.240;-1.546;2023-11-18T14:33:07;16.40;83.40
77985;DHT22;67177;47.240;-1.546;2023-11-18T14:35:33;16.40;83.40
77985;DHT22;67177;47.240;-1.546;2023-11-18T14:38:00;16.40;83.50
77985;DHT22;67177;47.240;-1.546;2023-11-18T14:40:26;16.40;83.70
77985;DHT22;67177;47.240;-1.546;2023-11-18T14:42:54;16.40;84.00
77985;DHT22;67177;47.240;-1.546;2023-11-18T14:45:20;16.30;84.10
77985;DHT22;67177;47.240;-1.546;2023-11-18T14:47:47;16.30;84.30
77985;DHT22;67177;47.240;-1.546;2023-11-18T14:50:14;16.20;84.50
77985;DHT22;67177;47.240;-1.546;2023-11-18T14:52:46;16.20;84.70
77985;DHT22;67177;47.240;-1.546;2023-11-18T14:55:13;16.20;84.80
77985;DHT22;67177;47.240;-1.546;2023-11-18T14:57:39;16.20;85.00
77985;DHT22;67177;47.240;-1.546;2023-11-18T15:00:06;16.10;85.10
77985;DHT22;67177;47.240;-1.546;2023-11-18T15:02:33;16.10;85.10
77985;DHT22;67177;47.240;-1.546;2023-11-18T15:05:00;16.10;85.10
77985;DHT22;67177;47.240;-1.546;2023-11-18T15:07:28;16.10;85.20
77985;DHT22;67177;47.240;-1.546;2023-11-18T15:09:54;16.10;85.20
77985;DHT22;67177;47.240;-1.546;2023-11-18T15:12:19;16.10;85.30
77985;DHT22;67177;47.240;-1.546;2023-11-18T15:14:45;16.10;85.30
77985;DHT22;67177;47.240;-1.546;2023-11-18T15:17:11;16.10;85.40
77985;DHT22;67177;47.240;-1.546;2023-11-18T15:19:39;16.10;85.30
77985;DHT22;67177;47.240;-1.546;2023-11-18T15:22:05;16.10;85.30
77985;DHT22;67177;47.240;-1.546;2023-11-18T15:24:30;16.10;85.50
77985;DHT22;67177;47.240;-1.546;2023-11-18T15:26:57;16.10;85.60
77985;DHT22;67177;47.240;-1.546;2023-11-18T15:29:25;16.10;85.70
77985;DHT22;67177;47.240;-1.546;2023-11-18T15:31:58;16.10;85.80
77985;DHT22;67177;47.240;-1.546;2023-11-18T15:34:24;16.00;85.80
77985;DHT22;67177;47.240;-1.546;2023-11-18T15:36:50;16.00;85.90
77985;DHT22;67177;47.240;-1.546;2023-11-18T15:39:17;16.00;86.10